Celestino, Wesley
United StatesManBorn 19802011 – 2022Runner id 213920
Events
27
2011 – 2022
Best pace
10.211
km/h · 2018
Best finish
14th
of 154 · 2021
Distance raced
1,993
km · splits not double-counted
Pace over time
km/h · higher is faster
Pace over time: 27 races from 2011 to 2022, ranging from 3.40 to 10.35 kilometres per hour, where higher is faster. A second, age-graded series is drawn above it; the gap between the two is the age credit.
- Actual pace
- Age-graded pace
Results
| Date | Event | Distance | Result | Pace km/h | Placing |
|---|---|---|---|---|---|
| 2011-05-22 | Dirty German Endurance Fest 50 kmUnited States | 50km | 5:32:38 h | 9.019 | 39/92 |
| 2011-07-16 | 24h | 81.651 km | 3.402 | 155/198 | |
| 2011-10-02 | 50km | 6:53:20 h | 7.258 | 181/222 | |
| 2014-07-19 | 24h | 81.690 km | 3.404 | 110/140 | |
| 2015-05-17 | Dirty German Endurance Fest 50 kmUnited States | 50km | 5:31:45 h | 9.043 | 36/128 |
| 2015-07-18 | Lone Ranger 24 hr Urban UltraUnited States | 24h | 122.535 km | 5.106 | 30/128 |
| 2015-10-04 | 50km | 7:34:28 h | 6.601 | 256/290 | |
| 2015-11-07 | 50mi | 11:40:31 h | 6.892 | 155/198 | |
| 2015-12-19 | 50km | 5:17:05 h | 9.461 | 66/244 | |
| 2016-01-16 | 100mi | 26:39:33 h | 6.037 | 19/29 | |
| 2016-04-09 | 50mi | 12:08:23 h | 6.628 | 178/233 | |
| 2016-05-15 | 50km | 6:55:03 h | 7.228 | 143/166 | |
| 2016-10-07 | 100mi | 35:37:04 h | 4.518 | 142/179 | |
| 2017-09-16 | 50km | 7:21:07 h | 6.801 | 102/156 | |
| 2018-03-31 | 50mi | 11:11:10 h | 7.193 | 45/69 | |
| 2018-05-12 | 50km | 7:20:39 h | 6.808 | 132/190 | |
| 2018-06-16 | 50km | 4:53:48 h | 10.211 | 5/53 | |
| 2018-07-14 | 50km | 6:52:01 h | 7.281 | 24/46 | |
| 2018-12-15 | 50km | 7:34:58 h | 6.594 | 92/119 | |
| 2019-01-05 | 50km | 7:26:11 h | 6.724 | 18/21 | |
| 2019-03-30 | 50mi | 10:42:10 h | 7.518 | 28/73 | |
| 2019-06-15 | 50km | 5:35:37 h | 8.939 | 24/155 | |
| 2019-07-20 | Vermont 100 Mile Endurance RaceUnited States | 100mi | 28:43:11 h | 5.604 | 110/156 |
| 2020-02-01 | 50km | 8:29:29 h | 5.888 | 131/164 | |
| 2021-04-18 | 10h | 80.467 km | 8.047 | 14/154 | |
| 2021-09-05 | 12h | 72.420 km | 6.035 | 44/184 | |
| 2022-12-18 | 50km | 7:56:11 h | 6.300 | 123/132 |